sensor_id;sensor_type;location;lat;lon;timestamp;P1;durP1;ratioP1;P2;durP2;ratioP2
64633;SDS011;51043;52.406;9.690;2022-12-07T00:00:54;41.57;;;26.07;;
64633;SDS011;51043;52.406;9.690;2022-12-07T00:03:35;44.20;;;26.90;;
64633;SDS011;51043;52.406;9.690;2022-12-07T00:06:04;37.37;;;25.93;;
64633;SDS011;51043;52.406;9.690;2022-12-07T00:08:32;42.40;;;26.23;;
64633;SDS011;51043;52.406;9.690;2022-12-07T00:11:03;36.73;;;24.80;;
64633;SDS011;51043;52.406;9.690;2022-12-07T00:13:31;41.77;;;26.10;;
64633;SDS011;51043;52.406;9.690;2022-12-07T00:16:03;38.73;;;25.70;;
64633;SDS011;51043;52.406;9.690;2022-12-07T00:18:34;36.87;;;25.27;;
64633;SDS011;51043;52.406;9.690;2022-12-07T00:21:05;35.90;;;24.17;;
64633;SDS011;51043;52.406;9.690;2022-12-07T00:23:35;32.63;;;23.57;;
64633;SDS011;51043;52.406;9.690;2022-12-07T00:26:13;35.53;;;23.67;;
64633;SDS011;51043;52.406;9.690;2022-12-07T00:28:48;34.30;;;23.43;;
64633;SDS011;51043;52.406;9.690;2022-12-07T00:31:19;35.30;;;23.30;;
64633;SDS011;51043;52.406;9.690;2022-12-07T00:33:47;34.30;;;23.03;;
64633;SDS011;51043;52.406;9.690;2022-12-07T00:36:16;26.87;;;20.67;;
64633;SDS011;51043;52.406;9.690;2022-12-07T00:38:47;32.77;;;23.13;;
64633;SDS011;51043;52.406;9.690;2022-12-07T00:41:15;31.50;;;22.43;;
64633;SDS011;51043;52.406;9.690;2022-12-07T00:43:47;31.80;;;23.17;;
64633;SDS011;51043;52.406;9.690;2022-12-07T00:46:15;33.30;;;23.07;;
64633;SDS011;51043;52.406;9.690;2022-12-07T00:48:43;29.37;;;22.83;;
64633;SDS011;51043;52.406;9.690;2022-12-07T00:51:13;27.87;;;21.63;;
64633;SDS011;51043;52.406;9.690;2022-12-07T00:53:41;31.43;;;21.97;;
64633;SDS011;51043;52.406;9.690;2022-12-07T00:56:09;28.60;;;21.40;;
64633;SDS011;51043;52.406;9.690;2022-12-07T00:58:57;29.83;;;21.57;;
64633;SDS011;51043;52.406;9.690;2022-12-07T01:01:26;30.77;;;22.47;;
64633;SDS011;51043;52.406;9.690;2022-12-07T01:03:56;37.03;;;22.60;;
64633;SDS011;51043;52.406;9.690;2022-12-07T01:06:23;31.00;;;22.50;;
64633;SDS011;51043;52.406;9.690;2022-12-07T01:08:51;37.43;;;24.40;;
64633;SDS011;51043;52.406;9.690;2022-12-07T01:11:19;33.83;;;21.47;;
64633;SDS011;51043;52.406;9.690;2022-12-07T01:13:49;32.37;;;23.23;;
64633;SDS011;51043;52.406;9.690;2022-12-07T01:16:17;31.57;;;24.83;;
64633;SDS011;51043;52.406;9.690;2022-12-07T01:18:45;30.63;;;22.43;;
64633;SDS011;51043;52.406;9.690;2022-12-07T01:21:14;33.23;;;25.00;;
64633;SDS011;51043;52.406;9.690;2022-12-07T01:23:43;33.50;;;26.13;;
64633;SDS011;51043;52.406;9.690;2022-12-07T01:26:11;28.43;;;20.47;;
64633;SDS011;51043;52.406;9.690;2022-12-07T01:28:41;32.37;;;23.53;;
64633;SDS011;51043;52.406;9.690;2022-12-07T01:31:10;32.13;;;24.13;;
64633;SDS011;51043;52.406;9.690;2022-12-07T01:33:42;34.50;;;25.13;;
64633;SDS011;51043;52.406;9.690;2022-12-07T01:36:14;27.53;;;19.93;;
64633;SDS011;51043;52.406;9.690;2022-12-07T01:38:44;33.57;;;25.77;;
64633;SDS011;51043;52.406;9.690;2022-12-07T01:41:12;29.47;;;22.47;;
64633;SDS011;51043;52.406;9.690;2022-12-07T01:46:39;38.73;;;25.87;;
64633;SDS011;51043;52.406;9.690;2022-12-07T01:49:08;33.33;;;23.77;;
64633;SDS011;51043;52.406;9.690;2022-12-07T01:51:39;30.93;;;23.93;;
64633;SDS011;51043;52.406;9.690;2022-12-07T01:54:08;32.57;;;24.73;;
64633;SDS011;51043;52.406;9.690;2022-12-07T01:56:37;30.77;;;24.07;;
64633;SDS011;51043;52.406;9.690;2022-12-07T01:59:06;26.33;;;19.33;;
64633;SDS011;51043;52.406;9.690;2022-12-07T02:01:34;29.77;;;22.20;;
64633;SDS011;51043;52.406;9.690;2022-12-07T02:04:01;22.87;;;16.50;;
64633;SDS011;51043;52.406;9.690;2022-12-07T02:06:28;27.60;;;20.67;;
64633;SDS011;51043;52.406;9.690;2022-12-07T02:08:56;28.07;;;20.83;;
64633;SDS011;51043;52.406;9.690;2022-12-07T02:11:23;25.83;;;19.67;;
64633;SDS011;51043;52.406;9.690;2022-12-07T02:13:49;31.53;;;24.37;;
64633;SDS011;51043;52.406;9.690;2022-12-07T02:22:02;34.97;;;23.17;;
64633;SDS011;51043;52.406;9.690;2022-12-07T02:27:51;35.93;;;24.63;;
64633;SDS011;51043;52.406;9.690;2022-12-07T02:30:28;25.73;;;17.93;;
64633;SDS011;51043;52.406;9.690;2022-12-07T02:38:18;35.70;;;22.93;;
64633;SDS011;51043;52.406;9.690;2022-12-07T02:41:16;29.47;;;22.83;;
64633;SDS011;51043;52.406;9.690;2022-12-07T02:43:52;31.90;;;22.00;;
64633;SDS011;51043;52.406;9.690;2022-12-07T02:46:36;32.47;;;23.83;;
64633;SDS011;51043;52.406;9.690;2022-12-07T02:49:07;31.00;;;23.40;;
64633;SDS011;51043;52.406;9.690;2022-12-07T02:51:38;28.33;;;22.63;;
64633;SDS011;51043;52.406;9.690;2022-12-07T02:54:17;26.03;;;20.83;;
64633;SDS011;51043;52.406;9.690;2022-12-07T03:02:35;28.90;;;21.37;;
64633;SDS011;51043;52.406;9.690;2022-12-07T03:11:09;23.57;;;19.17;;
64633;SDS011;51043;52.406;9.690;2022-12-07T03:13:48;24.57;;;18.43;;
64633;SDS011;51043;52.406;9.690;2022-12-07T03:16:25;23.80;;;18.73;;
64633;SDS011;51043;52.406;9.690;2022-12-07T03:18:58;22.87;;;16.80;;
64633;SDS011;51043;52.406;9.690;2022-12-07T03:21:31;25.23;;;16.60;;
64633;SDS011;51043;52.406;9.690;2022-12-07T03:24:04;25.40;;;17.80;;
64633;SDS011;51043;52.406;9.690;2022-12-07T03:26:42;23.73;;;17.00;;
64633;SDS011;51043;52.406;9.690;2022-12-07T03:29:19;23.07;;;15.53;;
64633;SDS011;51043;52.406;9.690;2022-12-07T03:31:53;23.43;;;14.23;;
64633;SDS011;51043;52.406;9.690;2022-12-07T03:34:50;22.90;;;15.50;;
64633;SDS011;51043;52.406;9.690;2022-12-07T03:37:23;20.83;;;15.53;;
64633;SDS011;51043;52.406;9.690;2022-12-07T03:39:56;19.23;;;14.23;;
64633;SDS011;51043;52.406;9.690;2022-12-07T03:42:28;22.40;;;14.83;;
64633;SDS011;51043;52.406;9.690;2022-12-07T03:44:57;21.33;;;14.67;;
64633;SDS011;51043;52.406;9.690;2022-12-07T03:47:29;21.87;;;15.00;;
64633;SDS011;51043;52.406;9.690;2022-12-07T03:49:59;21.87;;;14.20;;
64633;SDS011;51043;52.406;9.690;2022-12-07T03:52:39;22.57;;;14.47;;
64633;SDS011;51043;52.406;9.690;2022-12-07T03:55:20;19.43;;;12.07;;
64633;SDS011;51043;52.406;9.690;2022-12-07T03:58:05;19.20;;;12.57;;
64633;SDS011;51043;52.406;9.690;2022-12-07T04:00:35;18.17;;;14.03;;
64633;SDS011;51043;52.406;9.690;2022-12-07T04:03:02;21.93;;;14.40;;
64633;SDS011;51043;52.406;9.690;2022-12-07T04:05:29;22.20;;;14.63;;
64633;SDS011;51043;52.406;9.690;2022-12-07T04:07:56;22.53;;;14.50;;
64633;SDS011;51043;52.406;9.690;2022-12-07T04:10:23;21.53;;;13.93;;
64633;SDS011;51043;52.406;9.690;2022-12-07T04:12:50;20.97;;;14.50;;
64633;SDS011;51043;52.406;9.690;2022-12-07T04:15:17;19.77;;;14.47;;
64633;SDS011;51043;52.406;9.690;2022-12-07T04:17:43;17.67;;;13.93;;
64633;SDS011;51043;52.406;9.690;2022-12-07T04:20:10;19.67;;;13.40;;
64633;SDS011;51043;52.406;9.690;2022-12-07T04:22:38;16.17;;;13.57;;
64633;SDS011;51043;52.406;9.690;2022-12-07T04:25:05;17.63;;;12.67;;
64633;SDS011;51043;52.406;9.690;2022-12-07T04:27:32;18.87;;;14.80;;
64633;SDS011;51043;52.406;9.690;2022-12-07T04:29:58;22.87;;;15.87;;
64633;SDS011;51043;52.406;9.690;2022-12-07T04:32:26;19.10;;;14.07;;
64633;SDS011;51043;52.406;9.690;2022-12-07T04:34:52;18.43;;;12.23;;
64633;SDS011;51043;52.406;9.690;2022-12-07T04:37:21;19.40;;;11.53;;
64633;SDS011;51043;52.406;9.690;2022-12-07T04:39:48;20.97;;;14.93;;
64633;SDS011;51043;52.406;9.690;2022-12-07T04:42:15;22.07;;;14.30;;
64633;SDS011;51043;52.406;9.690;2022-12-07T04:44:43;16.10;;;12.77;;
64633;SDS011;51043;52.406;9.690;2022-12-07T04:47:10;19.20;;;13.03;;
64633;SDS011;51043;52.406;9.690;2022-12-07T04:49:38;20.33;;;12.90;;
64633;SDS011;51043;52.406;9.690;2022-12-07T04:52:05;19.50;;;12.23;;
64633;SDS011;51043;52.406;9.690;2022-12-07T04:54:32;21.80;;;12.43;;
64633;SDS011;51043;52.406;9.690;2022-12-07T04:56:58;22.70;;;13.70;;
64633;SDS011;51043;52.406;9.690;2022-12-07T04:59:25;21.13;;;12.47;;
64633;SDS011;51043;52.406;9.690;2022-12-07T05:01:52;23.33;;;12.67;;
64633;SDS011;51043;52.406;9.690;2022-12-07T05:04:19;23.07;;;13.13;;
64633;SDS011;51043;52.406;9.690;2022-12-07T05:06:46;20.37;;;12.33;;
64633;SDS011;51043;52.406;9.690;2022-12-07T05:09:14;13.47;;;9.33;;
64633;SDS011;51043;52.406;9.690;2022-12-07T05:11:41;16.87;;;12.03;;
64633;SDS011;51043;52.406;9.690;2022-12-07T05:16:44;19.50;;;11.80;;
64633;SDS011;51043;52.406;9.690;2022-12-07T05:19:14;21.53;;;12.07;;
64633;SDS011;51043;52.406;9.690;2022-12-07T05:21:41;18.27;;;11.93;;
64633;SDS011;51043;52.406;9.690;2022-12-07T05:24:09;21.43;;;12.10;;
64633;SDS011;51043;52.406;9.690;2022-12-07T05:26:39;21.63;;;13.17;;
64633;SDS011;51043;52.406;9.690;2022-12-07T05:29:06;18.33;;;11.70;;
64633;SDS011;51043;52.406;9.690;2022-12-07T05:31:34;21.27;;;12.23;;
64633;SDS011;51043;52.406;9.690;2022-12-07T05:34:01;18.03;;;11.80;;
64633;SDS011;51043;52.406;9.690;2022-12-07T05:36:28;20.23;;;10.90;;
64633;SDS011;51043;52.406;9.690;2022-12-07T05:38:58;18.07;;;11.20;;
64633;SDS011;51043;52.406;9.690;2022-12-07T05:41:25;18.33;;;11.80;;
64633;SDS011;51043;52.406;9.690;2022-12-07T05:44:10;19.50;;;12.23;;
64633;SDS011;51043;52.406;9.690;2022-12-07T05:46:37;21.13;;;11.50;;
64633;SDS011;51043;52.406;9.690;2022-12-07T05:49:04;13.23;;;10.30;;
64633;SDS011;51043;52.406;9.690;2022-12-07T05:51:34;18.80;;;11.20;;
64633;SDS011;51043;52.406;9.690;2022-12-07T05:54:01;14.60;;;8.63;;
64633;SDS011;51043;52.406;9.690;2022-12-07T05:56:31;18.40;;;10.53;;
64633;SDS011;51043;52.406;9.690;2022-12-07T05:58:58;17.27;;;10.37;;
64633;SDS011;51043;52.406;9.690;2022-12-07T06:01:44;19.40;;;10.50;;
64633;SDS011;51043;52.406;9.690;2022-12-07T06:04:11;15.93;;;9.03;;
64633;SDS011;51043;52.406;9.690;2022-12-07T06:06:38;17.90;;;9.10;;
64633;SDS011;51043;52.406;9.690;2022-12-07T06:09:05;18.90;;;10.07;;
64633;SDS011;51043;52.406;9.690;2022-12-07T06:11:32;13.37;;;9.43;;
64633;SDS011;51043;52.406;9.690;2022-12-07T06:14:17;12.87;;;8.10;;
64633;SDS011;51043;52.406;9.690;2022-12-07T06:16:44;14.67;;;8.87;;
64633;SDS011;51043;52.406;9.690;2022-12-07T06:19:11;17.60;;;8.20;;
64633;SDS011;51043;52.406;9.690;2022-12-07T06:21:38;15.80;;;8.57;;
64633;SDS011;51043;52.406;9.690;2022-12-07T06:24:05;9.63;;;5.53;;
64633;SDS011;51043;52.406;9.690;2022-12-07T06:26:32;18.30;;;8.93;;
64633;SDS011;51043;52.406;9.690;2022-12-07T06:28:59;17.37;;;8.40;;
64633;SDS011;51043;52.406;9.690;2022-12-07T06:31:26;11.67;;;8.00;;
64633;SDS011;51043;52.406;9.690;2022-12-07T06:33:57;14.27;;;8.07;;
64633;SDS011;51043;52.406;9.690;2022-12-07T06:36:29;12.63;;;7.60;;
64633;SDS011;51043;52.406;9.690;2022-12-07T06:38:57;9.97;;;5.13;;
64633;SDS011;51043;52.406;9.690;2022-12-07T06:41:24;16.57;;;7.13;;
64633;SDS011;51043;52.406;9.690;2022-12-07T06:43:51;11.33;;;6.53;;
64633;SDS011;51043;52.406;9.690;2022-12-07T06:46:21;12.97;;;6.67;;
64633;SDS011;51043;52.406;9.690;2022-12-07T06:48:48;15.17;;;7.10;;
64633;SDS011;51043;52.406;9.690;2022-12-07T06:51:15;16.43;;;6.97;;
64633;SDS011;51043;52.406;9.690;2022-12-07T06:53:42;12.90;;;6.03;;
64633;SDS011;51043;52.406;9.690;2022-12-07T06:56:08;12.83;;;6.37;;
64633;SDS011;51043;52.406;9.690;2022-12-07T06:58:36;15.13;;;6.73;;
64633;SDS011;51043;52.406;9.690;2022-12-07T07:01:07;10.20;;;5.83;;
64633;SDS011;51043;52.406;9.690;2022-12-07T07:03:39;13.80;;;7.03;;
64633;SDS011;51043;52.406;9.690;2022-12-07T07:06:06;14.33;;;6.03;;
64633;SDS011;51043;52.406;9.690;2022-12-07T07:08:36;18.23;;;6.43;;
64633;SDS011;51043;52.406;9.690;2022-12-07T07:11:04;13.03;;;7.40;;
64633;SDS011;51043;52.406;9.690;2022-12-07T07:13:33;17.57;;;6.30;;
64633;SDS011;51043;52.406;9.690;2022-12-07T07:16:00;12.47;;;5.73;;
64633;SDS011;51043;52.406;9.690;2022-12-07T07:18:27;15.33;;;6.17;;
64633;SDS011;51043;52.406;9.690;2022-12-07T07:20:54;18.97;;;5.20;;
64633;SDS011;51043;52.406;9.690;2022-12-07T07:23:21;12.77;;;5.37;;
64633;SDS011;51043;52.406;9.690;2022-12-07T07:25:48;13.47;;;5.13;;
64633;SDS011;51043;52.406;9.690;2022-12-07T07:28:15;16.03;;;5.37;;
64633;SDS011;51043;52.406;9.690;2022-12-07T07:30:43;9.00;;;4.17;;
64633;SDS011;51043;52.406;9.690;2022-12-07T07:33:10;11.90;;;5.07;;
64633;SDS011;51043;52.406;9.690;2022-12-07T07:35:38;10.13;;;4.60;;
64633;SDS011;51043;52.406;9.690;2022-12-07T07:38:05;11.07;;;4.40;;
64633;SDS011;51043;52.406;9.690;2022-12-07T07:40:33;13.40;;;4.20;;
64633;SDS011;51043;52.406;9.690;2022-12-07T07:43:00;9.33;;;3.73;;
64633;SDS011;51043;52.406;9.690;2022-12-07T07:45:27;19.07;;;4.73;;
64633;SDS011;51043;52.406;9.690;2022-12-07T07:47:54;12.07;;;4.27;;
64633;SDS011;51043;52.406;9.690;2022-12-07T07:50:21;8.73;;;3.03;;
64633;SDS011;51043;52.406;9.690;2022-12-07T07:52:48;9.47;;;3.50;;
64633;SDS011;51043;52.406;9.690;2022-12-07T07:55:15;9.83;;;3.20;;
64633;SDS011;51043;52.406;9.690;2022-12-07T07:57:42;8.60;;;2.97;;
64633;SDS011;51043;52.406;9.690;2022-12-07T08:00:12;10.10;;;3.23;;
64633;SDS011;51043;52.406;9.690;2022-12-07T08:02:40;7.90;;;3.13;;
64633;SDS011;51043;52.406;9.690;2022-12-07T08:05:10;13.73;;;3.23;;
64633;SDS011;51043;52.406;9.690;2022-12-07T08:07:38;11.10;;;3.13;;
64633;SDS011;51043;52.406;9.690;2022-12-07T08:10:05;6.47;;;2.60;;
64633;SDS011;51043;52.406;9.690;2022-12-07T08:12:35;9.50;;;2.63;;
64633;SDS011;51043;52.406;9.690;2022-12-07T08:15:27;7.70;;;2.83;;
64633;SDS011;51043;52.406;9.690;2022-12-07T08:17:55;10.47;;;2.87;;
64633;SDS011;51043;52.406;9.690;2022-12-07T08:20:21;8.77;;;2.70;;
64633;SDS011;51043;52.406;9.690;2022-12-07T08:22:48;9.10;;;2.50;;
64633;SDS011;51043;52.406;9.690;2022-12-07T08:25:16;4.13;;;1.97;;
64633;SDS011;51043;52.406;9.690;2022-12-07T08:27:43;10.53;;;2.80;;
64633;SDS011;51043;52.406;9.690;2022-12-07T08:30:10;7.27;;;2.43;;
64633;SDS011;51043;52.406;9.690;2022-12-07T08:32:38;9.20;;;2.63;;
64633;SDS011;51043;52.406;9.690;2022-12-07T08:35:05;4.40;;;1.80;;
64633;SDS011;51043;52.406;9.690;2022-12-07T08:37:32;7.87;;;2.50;;
64633;SDS011;51043;52.406;9.690;2022-12-07T08:39:59;5.23;;;1.97;;
64633;SDS011;51043;52.406;9.690;2022-12-07T08:42:26;10.50;;;2.50;;
64633;SDS011;51043;52.406;9.690;2022-12-07T08:45:08;6.63;;;1.97;;
64633;SDS011;51043;52.406;9.690;2022-12-07T08:47:37;9.60;;;2.53;;
64633;SDS011;51043;52.406;9.690;2022-12-07T08:50:08;6.73;;;2.40;;
64633;SDS011;51043;52.406;9.690;2022-12-07T08:52:38;12.60;;;3.00;;
64633;SDS011;51043;52.406;9.690;2022-12-07T08:55:08;5.53;;;2.20;;
64633;SDS011;51043;52.406;9.690;2022-12-07T08:57:37;6.53;;;2.27;;
64633;SDS011;51043;52.406;9.690;2022-12-07T09:00:05;5.90;;;2.20;;
64633;SDS011;51043;52.406;9.690;2022-12-07T09:02:33;5.73;;;2.30;;
64633;SDS011;51043;52.406;9.690;2022-12-07T09:05:00;8.90;;;2.80;;
64633;SDS011;51043;52.406;9.690;2022-12-07T09:07:27;11.47;;;2.70;;
64633;SDS011;51043;52.406;9.690;2022-12-07T09:09:56;9.00;;;2.33;;
64633;SDS011;51043;52.406;9.690;2022-12-07T09:12:23;8.20;;;2.30;;
64633;SDS011;51043;52.406;9.690;2022-12-07T09:14:50;7.83;;;2.40;;
64633;SDS011;51043;52.406;9.690;2022-12-07T09:17:17;7.57;;;2.57;;
64633;SDS011;51043;52.406;9.690;2022-12-07T09:19:44;2.43;;;1.50;;
64633;SDS011;51043;52.406;9.690;2022-12-07T09:22:11;6.80;;;2.10;;
64633;SDS011;51043;52.406;9.690;2022-12-07T09:24:37;9.07;;;2.50;;
64633;SDS011;51043;52.406;9.690;2022-12-07T09:27:04;8.87;;;2.40;;
64633;SDS011;51043;52.406;9.690;2022-12-07T09:29:31;6.67;;;2.43;;
64633;SDS011;51043;52.406;9.690;2022-12-07T09:31:58;6.20;;;1.80;;
64633;SDS011;51043;52.406;9.690;2022-12-07T09:34:25;6.27;;;2.10;;
64633;SDS011;51043;52.406;9.690;2022-12-07T09:36:52;8.17;;;2.30;;
64633;SDS011;51043;52.406;9.690;2022-12-07T09:39:19;4.50;;;2.03;;
64633;SDS011;51043;52.406;9.690;2022-12-07T09:41:47;3.80;;;1.43;;
64633;SDS011;51043;52.406;9.690;2022-12-07T09:44:20;6.80;;;1.90;;
64633;SDS011;51043;52.406;9.690;2022-12-07T09:46:51;5.33;;;1.60;;
64633;SDS011;51043;52.406;9.690;2022-12-07T09:49:20;8.97;;;2.40;;
64633;SDS011;51043;52.406;9.690;2022-12-07T09:52:03;7.43;;;2.27;;
64633;SDS011;51043;52.406;9.690;2022-12-07T09:54:47;4.93;;;1.97;;
64633;SDS011;51043;52.406;9.690;2022-12-07T09:57:16;5.40;;;1.90;;
64633;SDS011;51043;52.406;9.690;2022-12-07T09:59:44;7.17;;;1.73;;
64633;SDS011;51043;52.406;9.690;2022-12-07T10:04:57;5.40;;;1.90;;
64633;SDS011;51043;52.406;9.690;2022-12-07T10:07:25;6.27;;;1.93;;
64633;SDS011;51043;52.406;9.690;2022-12-07T10:09:52;4.93;;;1.60;;
64633;SDS011;51043;52.406;9.690;2022-12-07T10:12:19;5.67;;;2.33;;
64633;SDS011;51043;52.406;9.690;2022-12-07T10:14:53;5.60;;;1.77;;
64633;SDS011;51043;52.406;9.690;2022-12-07T10:17:38;6.53;;;2.00;;
64633;SDS011;51043;52.406;9.690;2022-12-07T10:22:57;4.33;;;1.63;;
64633;SDS011;51043;52.406;9.690;2022-12-07T10:25:28;6.30;;;1.67;;
64633;SDS011;51043;52.406;9.690;2022-12-07T10:30:50;5.90;;;1.93;;
64633;SDS011;51043;52.406;9.690;2022-12-07T10:33:44;5.30;;;2.07;;
64633;SDS011;51043;52.406;9.690;2022-12-07T10:38:51;3.33;;;1.53;;
64633;SDS011;51043;52.406;9.690;2022-12-07T10:41:19;7.27;;;2.63;;
64633;SDS011;51043;52.406;9.690;2022-12-07T10:43:47;7.80;;;2.33;;
64633;SDS011;51043;52.406;9.690;2022-12-07T10:49:19;6.13;;;1.87;;
64633;SDS011;51043;52.406;9.690;2022-12-07T10:55:14;4.97;;;2.20;;
64633;SDS011;51043;52.406;9.690;2022-12-07T11:00:34;5.33;;;1.93;;
64633;SDS011;51043;52.406;9.690;2022-12-07T11:03:16;4.77;;;1.97;;
64633;SDS011;51043;52.406;9.690;2022-12-07T11:14:18;7.63;;;2.03;;
64633;SDS011;51043;52.406;9.690;2022-12-07T11:16:55;4.70;;;1.80;;
64633;SDS011;51043;52.406;9.690;2022-12-07T11:22:23;3.33;;;1.27;;
64633;SDS011;51043;52.406;9.690;2022-12-07T11:25:15;1.10;;;1.00;;
64633;SDS011;51043;52.406;9.690;2022-12-07T11:33:33;15.87;;;1.73;;
64633;SDS011;51043;52.406;9.690;2022-12-07T11:36:38;4.17;;;1.70;;
64633;SDS011;51043;52.406;9.690;2022-12-07T11:39:52;4.80;;;2.73;;
64633;SDS011;51043;52.406;9.690;2022-12-07T11:42:08;5.53;;;2.10;;
64633;SDS011;51043;52.406;9.690;2022-12-07T11:47:40;3.30;;;2.07;;
64633;SDS011;51043;52.406;9.690;2022-12-07T11:50:26;4.70;;;2.03;;
64633;SDS011;51043;52.406;9.690;2022-12-07T11:55:40;6.80;;;2.10;;
64633;SDS011;51043;52.406;9.690;2022-12-07T12:03:47;5.23;;;2.03;;
64633;SDS011;51043;52.406;9.690;2022-12-07T12:06:18;8.23;;;2.13;;
64633;SDS011;51043;52.406;9.690;2022-12-07T12:25:59;7.97;;;2.30;;
64633;SDS011;51043;52.406;9.690;2022-12-07T12:31:05;7.60;;;2.60;;
64633;SDS011;51043;52.406;9.690;2022-12-07T12:33:35;8.23;;;2.20;;
64633;SDS011;51043;52.406;9.690;2022-12-07T12:39:07;8.53;;;2.63;;
64633;SDS011;51043;52.406;9.690;2022-12-07T12:46:58;9.53;;;2.67;;
64633;SDS011;51043;52.406;9.690;2022-12-07T12:49:38;8.70;;;3.20;;
64633;SDS011;51043;52.406;9.690;2022-12-07T12:57:35;6.20;;;2.40;;
64633;SDS011;51043;52.406;9.690;2022-12-07T13:00:23;11.57;;;3.00;;
64633;SDS011;51043;52.406;9.690;2022-12-07T13:02:52;12.30;;;3.50;;
64633;SDS011;51043;52.406;9.690;2022-12-07T13:07:56;12.30;;;3.10;;
64633;SDS011;51043;52.406;9.690;2022-12-07T13:12:58;9.87;;;2.63;;
64633;SDS011;51043;52.406;9.690;2022-12-07T13:20:59;10.00;;;2.63;;
64633;SDS011;51043;52.406;9.690;2022-12-07T13:26:26;6.47;;;2.53;;
64633;SDS011;51043;52.406;9.690;2022-12-07T13:29:16;7.43;;;2.70;;
64633;SDS011;51043;52.406;9.690;2022-12-07T13:34:49;11.90;;;2.73;;
64633;SDS011;51043;52.406;9.690;2022-12-07T13:37:21;12.77;;;2.57;;
64633;SDS011;51043;52.406;9.690;2022-12-07T13:39:53;8.80;;;2.53;;
64633;SDS011;51043;52.406;9.690;2022-12-07T13:44:59;13.17;;;3.00;;
64633;SDS011;51043;52.406;9.690;2022-12-07T13:47:46;6.90;;;2.53;;
64633;SDS011;51043;52.406;9.690;2022-12-07T13:50:26;12.63;;;2.93;;
64633;SDS011;51043;52.406;9.690;2022-12-07T13:52:59;8.27;;;2.83;;
64633;SDS011;51043;52.406;9.690;2022-12-07T13:55:28;11.40;;;2.50;;
64633;SDS011;51043;52.406;9.690;2022-12-07T13:57:56;11.63;;;2.70;;
64633;SDS011;51043;52.406;9.690;2022-12-07T14:00:26;10.27;;;2.60;;
64633;SDS011;51043;52.406;9.690;2022-12-07T14:03:01;8.83;;;2.37;;
64633;SDS011;51043;52.406;9.690;2022-12-07T14:09:06;7.63;;;2.43;;
64633;SDS011;51043;52.406;9.690;2022-12-07T14:11:34;7.93;;;2.20;;
64633;SDS011;51043;52.406;9.690;2022-12-07T14:14:02;7.17;;;2.63;;
64633;SDS011;51043;52.406;9.690;2022-12-07T14:16:33;9.93;;;2.40;;
64633;SDS011;51043;52.406;9.690;2022-12-07T14:19:06;8.47;;;2.70;;
64633;SDS011;51043;52.406;9.690;2022-12-07T14:22:26;10.90;;;2.40;;
64633;SDS011;51043;52.406;9.690;2022-12-07T14:27:39;9.57;;;2.50;;
64633;SDS011;51043;52.406;9.690;2022-12-07T14:30:19;3.23;;;1.60;;
64633;SDS011;51043;52.406;9.690;2022-12-07T14:32:48;8.53;;;2.27;;
64633;SDS011;51043;52.406;9.690;2022-12-07T14:35:25;9.17;;;2.40;;
64633;SDS011;51043;52.406;9.690;2022-12-07T14:37:53;9.67;;;2.27;;
64633;SDS011;51043;52.406;9.690;2022-12-07T14:40:21;10.27;;;2.50;;
64633;SDS011;51043;52.406;9.690;2022-12-07T14:43:03;5.57;;;2.20;;
64633;SDS011;51043;52.406;9.690;2022-12-07T14:45:35;5.73;;;1.70;;
64633;SDS011;51043;52.406;9.690;2022-12-07T14:48:02;10.87;;;2.60;;
64633;SDS011;51043;52.406;9.690;2022-12-07T14:50:51;11.80;;;2.90;;
64633;SDS011;51043;52.406;9.690;2022-12-07T14:53:40;8.17;;;2.73;;
64633;SDS011;51043;52.406;9.690;2022-12-07T14:56:12;8.40;;;3.30;;
64633;SDS011;51043;52.406;9.690;2022-12-07T14:58:39;11.37;;;2.93;;
64633;SDS011;51043;52.406;9.690;2022-12-07T15:01:06;9.20;;;2.67;;
64633;SDS011;51043;52.406;9.690;2022-12-07T15:03:34;12.70;;;3.30;;
64633;SDS011;51043;52.406;9.690;2022-12-07T15:06:05;9.53;;;2.50;;
64633;SDS011;51043;52.406;9.690;2022-12-07T15:08:33;12.37;;;2.70;;
64633;SDS011;51043;52.406;9.690;2022-12-07T15:11:01;9.20;;;2.60;;
64633;SDS011;51043;52.406;9.690;2022-12-07T15:13:28;8.63;;;2.60;;
64633;SDS011;51043;52.406;9.690;2022-12-07T15:16:16;7.20;;;2.23;;
64633;SDS011;51043;52.406;9.690;2022-12-07T15:18:47;13.90;;;2.90;;
64633;SDS011;51043;52.406;9.690;2022-12-07T15:21:24;9.33;;;3.83;;
64633;SDS011;51043;52.406;9.690;2022-12-07T15:23:50;8.30;;;3.17;;
64633;SDS011;51043;52.406;9.690;2022-12-07T15:26:18;8.23;;;2.77;;
64633;SDS011;51043;52.406;9.690;2022-12-07T15:28:45;8.67;;;2.67;;
64633;SDS011;51043;52.406;9.690;2022-12-07T15:31:15;6.50;;;2.40;;
64633;SDS011;51043;52.406;9.690;2022-12-07T15:34:03;10.73;;;3.23;;
64633;SDS011;51043;52.406;9.690;2022-12-07T15:36:31;10.07;;;2.90;;
64633;SDS011;51043;52.406;9.690;2022-12-07T15:39:00;9.27;;;4.13;;
64633;SDS011;51043;52.406;9.690;2022-12-07T15:41:38;8.97;;;3.00;;
64633;SDS011;51043;52.406;9.690;2022-12-07T15:44:05;9.23;;;3.13;;
64633;SDS011;51043;52.406;9.690;2022-12-07T15:46:54;8.63;;;3.17;;
64633;SDS011;51043;52.406;9.690;2022-12-07T15:49:21;12.87;;;3.27;;
64633;SDS011;51043;52.406;9.690;2022-12-07T15:51:48;10.10;;;2.90;;
64633;SDS011;51043;52.406;9.690;2022-12-07T15:54:18;11.60;;;3.50;;
64633;SDS011;51043;52.406;9.690;2022-12-07T15:56:47;10.03;;;2.90;;
64633;SDS011;51043;52.406;9.690;2022-12-07T15:59:14;11.77;;;3.23;;
64633;SDS011;51043;52.406;9.690;2022-12-07T16:01:41;10.87;;;3.03;;
64633;SDS011;51043;52.406;9.690;2022-12-07T16:04:09;13.70;;;3.50;;
64633;SDS011;51043;52.406;9.690;2022-12-07T16:06:36;13.37;;;3.53;;
64633;SDS011;51043;52.406;9.690;2022-12-07T16:09:03;8.43;;;3.07;;
64633;SDS011;51043;52.406;9.690;2022-12-07T16:11:34;9.17;;;3.50;;
64633;SDS011;51043;52.406;9.690;2022-12-07T16:14:01;11.10;;;2.97;;
64633;SDS011;51043;52.406;9.690;2022-12-07T16:16:28;12.50;;;3.40;;
64633;SDS011;51043;52.406;9.690;2022-12-07T16:18:56;8.30;;;3.30;;
64633;SDS011;51043;52.406;9.690;2022-12-07T16:21:23;13.00;;;3.23;;
64633;SDS011;51043;52.406;9.690;2022-12-07T16:23:51;14.27;;;3.93;;
64633;SDS011;51043;52.406;9.690;2022-12-07T16:26:19;14.67;;;3.67;;
64633;SDS011;51043;52.406;9.690;2022-12-07T16:28:50;13.83;;;3.87;;
64633;SDS011;51043;52.406;9.690;2022-12-07T16:31:19;9.87;;;3.70;;
64633;SDS011;51043;52.406;9.690;2022-12-07T16:33:47;10.73;;;3.90;;
64633;SDS011;51043;52.406;9.690;2022-12-07T16:36:15;9.03;;;3.70;;
64633;SDS011;51043;52.406;9.690;2022-12-07T16:38:54;10.57;;;4.57;;
64633;SDS011;51043;52.406;9.690;2022-12-07T16:41:21;13.77;;;4.70;;
64633;SDS011;51043;52.406;9.690;2022-12-07T16:43:48;11.47;;;4.00;;
64633;SDS011;51043;52.406;9.690;2022-12-07T16:46:15;15.07;;;3.93;;
64633;SDS011;51043;52.406;9.690;2022-12-07T16:48:42;15.40;;;4.87;;
64633;SDS011;51043;52.406;9.690;2022-12-07T16:51:10;9.77;;;4.87;;
64633;SDS011;51043;52.406;9.690;2022-12-07T16:53:39;11.53;;;3.90;;
64633;SDS011;51043;52.406;9.690;2022-12-07T16:56:12;11.07;;;4.03;;
64633;SDS011;51043;52.406;9.690;2022-12-07T16:58:41;15.30;;;4.20;;
64633;SDS011;51043;52.406;9.690;2022-12-07T17:01:12;17.97;;;4.53;;
64633;SDS011;51043;52.406;9.690;2022-12-07T17:03:41;11.87;;;3.83;;
64633;SDS011;51043;52.406;9.690;2022-12-07T17:06:19;13.73;;;4.27;;
64633;SDS011;51043;52.406;9.690;2022-12-07T17:08:50;15.67;;;4.50;;
64633;SDS011;51043;52.406;9.690;2022-12-07T17:11:22;12.00;;;5.03;;
64633;SDS011;51043;52.406;9.690;2022-12-07T17:13:51;15.63;;;4.47;;